Aviation Digital Data Service (ADDS)

Output produced by METARs form (1737 UTC 26 October 2021)
found at http://aviationweather.gov/metar/data/
 
METAR text: KPSO 261715Z AUTO 23019G26KT 10SM SCT023 SCT029 BKN070 05/01 A2984 RMK AO2 T00510011
Conditions at: KPSO (PAGOSA SPRINGS , CO, US) observed 1715 UTC 26 October 2021
Temperature: 5.1°C (41°F)
Dewpoint: 1.1°C (34°F) [RH = 75%]
Pressure (altimeter): 29.84 inches Hg (1010.6 mb)
Winds: from the SW (230 degrees) at 22 MPH (19 knots; 9.8 m/s)
gusting to 30 MPH (26 knots; 13.4 m/s)
Visibility: 10 or more miles (16+ km)
Ceiling: 7000 feet AGL
Clouds: scattered clouds at 2300 feet AGL
scattered clouds at 2900 feet AGL
broken clouds at 7000 feet AGL
Weather: automated observation with no human augmentation;
there may or may not be significant weather present at this time

METAR text: KPSO 261655Z AUTO 25008KT 10SM SCT027 SCT041 BKN070 04/03 A2984 RMK AO2 T00370027
Conditions at: KPSO (PAGOSA SPRINGS , CO, US) observed 1655 UTC 26 October 2021
Temperature: 3.7°C (39°F)
Dewpoint: 2.7°C (37°F) [RH = 93%]
Pressure (altimeter): 29.84 inches Hg (1010.6 mb)
Winds: from the WSW (250 degrees) at 9 MPH (8 knots; 4.1 m/s)
Visibility: 10 or more miles (16+ km)
Ceiling: 7000 feet AGL
Clouds: scattered clouds at 2700 feet AGL
scattered clouds at 4100 feet AGL
broken clouds at 7000 feet AGL
Weather: automated observation with no human augmentation;
there may or may not be significant weather present at this time